North Windham, CT (06256)

5:36 PM EST on March 06, 2015 (GMT -0500)
Charles H. Barrows STEM Academy | Change Station
CLOSE
Current Station
Personal Weather Station
Location: Windham, CT
Elevation: 361 ft
Nearby Weather Stations

Elev 361 ft 41.72 °N, 72.18 °W | Updated 55 seconds ago

Clear
Clear
25.0 °F
Feels Like 25 °F
N
2.0
Wind Variable Wind from NW

Today
High -- | Low -- °F
--% Chance of Precip.
Yesterday
High -- | Low -- °F
Precip. -- in
6:15 AM 5:44 PM
Full, 99% visible
Pressure 30.40 in
Visibility 10.0 miles
Clouds Clear
Windchill 25 °F
Dew Point -8 °F
Humidity 22%
Rainfall in
Snow Depth Not available.
UV 0 out of 12
Pollen .50 out of 12
Air Quality Not available.
Flu Activity Not available.
METAR KIJD 062152Z AUTO 23004KT 10SM CLR M03/M22 A3039 RMK AO2 SLP295 T10331222

More Conditions Fewer Conditions

Pressure 30.40 in
Visibility 10.0 miles
Clouds Clear
Windchill 25 °F
Dew Point -8 °F
Humidity 22%
Rainfall in
Snow Depth Not available.
UV 0 out of 12
Pollen .50 out of 12
Air Quality Not available.
Flu Activity Not available.
METAR KIJD 062152Z AUTO 23004KT 10SM CLR M03/M22 A3039 RMK AO2 SLP295 T10331222

More Conditions Fewer Conditions

10-Day Weather Forecast

Almanac

Astronomy

Mar. 06, 2015 Rise Set
Actual Time
Civil Twilight
Nautical Twilight
Astronomical Twilight
Moon
Length of Visible Light
Length of Day
Tomorrow will be .
, % of the Moon is Illuminated

Today's Extremes

State Highs State Lows

Community

WunderPhotos

Upload Photos

1,803,420 photos uploaded!

WunderBlogs® & News

Nearby

Air Quality

  Air Quality AQ Index Pollutant
Not available.

Snow Depth

Station Depth Elevation

Earthquake Activity

City Distance Mag. Time & Date
Minimum magnitude displayed is 2.5.

Coastal Water Temperatures

Place Temperature

Nearby Weather Stations